Time;durP1;ratioP1;P1;durP2;ratioP2;P2;SDS_P1;SDS_P2;PMS_P1;PMS_P2;Temp;Humidity;BMP_temperature;BMP_pressure;BME280_temperature;BME280_humidity;BME280_pressure;Samples;Min_cycle;Max_cycle;Signal;HPM_P1;HPM_P2
2021/01/21 00:01:03;;;;;;;8.88;4.57;;;;;;;;;;4962444;28;20051;-85
2021/01/21 00:03:30;;;;;;;8.10;4.57;;;;;;;;;;4964670;28;20656;-85
2021/01/21 00:05:56;;;;;;;8.23;5.07;;;;;;;;;;4964652;28;20087;-85
2021/01/21 00:08:22;;;;;;;7.65;4.28;;;;;;;;;;4964768;28;20043;-85
2021/01/21 00:10:48;;;;;;;7.88;4.35;;;;;;;;;;4965174;28;20047;-85
2021/01/21 00:13:14;;;;;;;7.28;4.38;;;;;;;;;;4966258;28;20054;-85
2021/01/21 00:15:41;;;;;;;7.03;4.65;;;;;;;;;;4964831;28;20043;-86
2021/01/21 00:18:08;;;;;;;7.85;4.47;;;;;;;;;;4963016;28;20134;-85
2021/01/21 00:20:34;;;;;;;6.68;4.07;;;;;;;;;;4964243;28;20050;-85
2021/01/21 00:23:00;;;;;;;7.93;5.00;;;;;;;;;;4967552;28;20488;-85
2021/01/21 00:25:26;;;;;;;8.00;4.45;;;;;;;;;;4969527;28;20058;-85
2021/01/21 00:27:52;;;;;;;7.18;3.83;;;;;;;;;;4970510;28;20038;-85
2021/01/21 00:30:19;;;;;;;8.05;4.95;;;;;;;;;;4968202;28;20046;-85
2021/01/21 00:32:46;;;;;;;8.40;4.90;;;;;;;;;;4967430;28;20050;-85
2021/01/21 00:35:13;;;;;;;8.07;4.47;;;;;;;;;;4968057;28;20043;-85
2021/01/21 00:37:40;;;;;;;7.75;4.60;;;;;;;;;;4968421;28;20074;-85
2021/01/21 00:40:06;;;;;;;6.90;4.38;;;;;;;;;;4960827;28;20635;-85
2021/01/21 00:42:33;;;;;;;12.82;6.85;;;;;;;;;;4968008;28;20475;-85
2021/01/21 00:44:59;;;;;;;10.63;5.55;;;;;;;;;;4970316;28;20043;-86
2021/01/21 00:47:25;;;;;;;15.48;7.55;;;;;;;;;;4967325;28;20051;-86
2021/01/21 00:49:51;;;;;;;11.02;5.60;;;;;;;;;;4965739;28;20051;-86
2021/01/21 00:52:18;;;;;;;10.55;4.93;;;;;;;;;;4967910;28;20055;-85
2021/01/21 00:54:44;;;;;;;10.50;5.18;;;;;;;;;;4967398;28;20051;-86
2021/01/21 00:57:10;;;;;;;9.32;4.78;;;;;;;;;;4967377;28;20051;-85
2021/01/21 00:59:36;;;;;;;9.75;4.38;;;;;;;;;;4963150;28;20044;-86
2021/01/21 01:02:02;;;;;;;7.28;4.15;;;;;;;;;;4966688;28;20134;-86
2021/01/21 01:04:28;;;;;;;7.38;4.78;;;;;;;;;;4969091;28;20038;-86
2021/01/21 01:06:54;;;;;;;10.05;4.80;;;;;;;;;;4971659;28;20061;-86
2021/01/21 01:09:21;;;;;;;11.18;5.82;;;;;;;;;;4958412;28;20184;-86
2021/01/21 01:11:48;;;;;;;8.65;5.90;;;;;;;;;;4957325;28;20055;-86
2021/01/21 01:14:14;;;;;;;11.20;6.13;;;;;;;;;;4973317;28;20055;-86
2021/01/21 01:16:40;;;;;;;12.10;6.72;;;;;;;;;;4977436;28;20451;-86
2021/01/21 01:19:06;;;;;;;13.68;7.05;;;;;;;;;;4977894;28;20398;-86
2021/01/21 01:21:32;;;;;;;13.65;7.95;;;;;;;;;;4977471;28;20054;-86
2021/01/21 01:23:58;;;;;;;14.00;7.72;;;;;;;;;;4977943;28;20050;-86
2021/01/21 01:26:25;;;;;;;9.93;6.15;;;;;;;;;;4958932;28;20055;-86
2021/01/21 01:28:51;;;;;;;9.95;6.18;;;;;;;;;;4958584;28;20435;-86
2021/01/21 01:31:17;;;;;;;8.63;4.80;;;;;;;;;;4958521;29;20083;-86
2021/01/21 01:33:43;;;;;;;13.10;7.15;;;;;;;;;;4957446;28;20618;-86
2021/01/21 01:36:10;;;;;;;12.68;6.50;;;;;;;;;;4958462;28;20057;-86
2021/01/21 01:38:36;;;;;;;16.30;7.72;;;;;;;;;;4958056;28;20051;-85
2021/01/21 01:41:02;;;;;;;17.20;8.77;;;;;;;;;;4968668;28;20135;-86
2021/01/21 01:43:29;;;;;;;9.68;5.90;;;;;;;;;;4976962;28;20057;-86
2021/01/21 01:45:55;;;;;;;8.48;5.22;;;;;;;;;;4977993;28;20461;-85
2021/01/21 01:48:21;;;;;;;9.07;4.72;;;;;;;;;;4977922;28;20105;-85
2021/01/21 01:50:48;;;;;;;18.73;9.68;;;;;;;;;;4977862;28;20480;-85
2021/01/21 01:53:14;;;;;;;10.60;6.47;;;;;;;;;;4977673;28;20055;-86
2021/01/21 01:55:40;;;;;;;9.82;5.10;;;;;;;;;;4977384;28;20051;-85
2021/01/21 01:58:08;;;;;;;8.13;5.15;;;;;;;;;;4960957;28;20054;-85
2021/01/21 02:00:35;;;;;;;9.93;4.82;;;;;;;;;;4958423;28;20055;-87
2021/01/21 02:03:01;;;;;;;9.07;4.90;;;;;;;;;;4971610;23;20055;-86
2021/01/21 02:05:27;;;;;;;11.73;5.75;;;;;;;;;;4959415;29;20067;-85
2021/01/21 02:07:53;;;;;;;12.35;6.22;;;;;;;;;;4959411;29;20102;-87
2021/01/21 02:10:20;;;;;;;9.60;5.50;;;;;;;;;;4960758;29;20048;-87
2021/01/21 02:13:01;;;;;;;8.00;4.63;;;;;;;;;;4959641;29;20056;-87
2021/01/21 02:15:40;;;;;;;8.38;4.53;;;;;;;;;;4960166;29;20054;-87
2021/01/21 02:18:12;;;;;;;13.63;7.28;;;;;;;;;;4959170;29;20054;-88
2021/01/21 02:21:10;;;;;;;13.88;7.40;;;;;;;;;;4959562;29;20102;-85
2021/01/21 02:23:55;;;;;;;11.25;5.82;;;;;;;;;;4978098;28;20082;-87
2021/01/21 02:26:24;;;;;;;7.80;4.25;;;;;;;;;;4939327;28;20073;-88
2021/01/21 02:29:09;;;;;;;9.35;4.72;;;;;;;;;;4978480;28;20078;-87
2021/01/21 02:31:46;;;;;;;8.70;4.90;;;;;;;;;;4978434;28;20042;-87
2021/01/21 02:34:17;;;;;;;6.80;3.90;;;;;;;;;;4977647;28;20487;-88
2021/01/21 02:36:45;;;;;;;7.97;4.10;;;;;;;;;;4978430;28;20059;-87
2021/01/21 02:39:11;;;;;;;7.35;4.68;;;;;;;;;;4977850;28;20062;-86
2021/01/21 02:41:38;;;;;;;7.50;4.32;;;;;;;;;;4978298;28;20060;-85
2021/01/21 02:44:04;;;;;;;9.93;4.60;;;;;;;;;;4977625;28;20054;-85
2021/01/21 02:46:30;;;;;;;7.63;4.20;;;;;;;;;;4977669;28;20058;-85
2021/01/21 02:48:58;;;;;;;9.35;5.05;;;;;;;;;;4977937;28;20054;-87
2021/01/21 02:51:29;;;;;;;11.68;5.80;;;;;;;;;;4976067;28;20118;-86
2021/01/21 02:54:07;;;;;;;10.60;5.72;;;;;;;;;;4957811;29;20047;-89
2021/01/21 02:56:35;;;;;;;12.48;6.22;;;;;;;;;;4958148;29;20107;-86
2021/01/21 02:59:03;;;;;;;13.23;6.57;;;;;;;;;;4957642;29;20526;-85
2021/01/21 03:01:31;;;;;;;11.90;6.40;;;;;;;;;;4957736;29;20043;-85
2021/01/21 03:03:57;;;;;;;10.15;5.32;;;;;;;;;;4938444;29;20081;-85
2021/01/21 03:06:25;;;;;;;10.77;6.03;;;;;;;;;;4938483;29;20063;-85
2021/01/21 03:08:51;;;;;;;9.55;5.30;;;;;;;;;;4939074;29;20051;-85
2021/01/21 03:11:17;;;;;;;7.00;4.75;;;;;;;;;;4939001;29;20657;-85
2021/01/21 03:13:44;;;;;;;7.32;4.28;;;;;;;;;;4938442;29;20115;-85
2021/01/21 03:16:11;;;;;;;11.20;5.57;;;;;;;;;;4938862;29;20560;-87
2021/01/21 03:18:37;;;;;;;9.25;5.10;;;;;;;;;;4938752;29;20392;-87
2021/01/21 03:21:03;;;;;;;8.20;5.20;;;;;;;;;;4938053;29;20138;-88
2021/01/21 03:23:30;;;;;;;8.48;5.03;;;;;;;;;;4937404;29;20488;-87
2021/01/21 03:25:56;;;;;;;10.27;5.43;;;;;;;;;;4938217;29;20055;-87
2021/01/21 03:28:22;;;;;;;8.80;5.05;;;;;;;;;;4938135;29;20055;-88
2021/01/21 03:30:49;;;;;;;8.75;5.43;;;;;;;;;;4938160;29;20420;-87
2021/01/21 03:33:14;;;;;;;9.93;5.88;;;;;;;;;;4938348;29;20059;-87
2021/01/21 03:35:40;;;;;;;17.85;9.73;;;;;;;;;;4938441;29;20059;-88
2021/01/21 03:38:06;;;;;;;18.40;10.30;;;;;;;;;;4937507;29;20408;-88
2021/01/21 03:40:33;;;;;;;11.90;7.15;;;;;;;;;;4937820;29;20056;-88
2021/01/21 03:42:59;;;;;;;9.48;4.65;;;;;;;;;;4937927;29;20177;-87
2021/01/21 03:45:25;;;;;;;8.15;5.45;;;;;;;;;;4938328;29;20126;-87
2021/01/21 03:47:51;;;;;;;9.32;5.03;;;;;;;;;;4938147;29;20060;-87
2021/01/21 03:50:18;;;;;;;6.68;5.03;;;;;;;;;;4937942;29;20048;-88
2021/01/21 03:52:44;;;;;;;8.85;5.20;;;;;;;;;;4937567;29;20047;-87
2021/01/21 03:55:10;;;;;;;9.27;5.20;;;;;;;;;;4937906;29;20138;-87
2021/01/21 03:57:37;;;;;;;7.75;4.57;;;;;;;;;;4939634;29;20057;-88
2021/01/21 04:00:05;;;;;;;8.52;5.15;;;;;;;;;;4941464;29;20071;-88
2021/01/21 04:02:31;;;;;;;11.65;7.32;;;;;;;;;;4941438;29;20059;-87
2021/01/21 04:04:56;;;;;;;9.43;4.90;;;;;;;;;;4941701;29;20140;-88
2021/01/21 04:07:22;;;;;;;10.00;5.03;;;;;;;;;;4940996;29;20044;-87
2021/01/21 04:09:48;;;;;;;8.43;4.40;;;;;;;;;;4941277;29;20048;-88
2021/01/21 04:12:14;;;;;;;7.82;4.55;;;;;;;;;;4941382;29;20075;-88
2021/01/21 04:14:41;;;;;;;9.23;4.78;;;;;;;;;;4941041;29;20463;-88
2021/01/21 04:17:07;;;;;;;8.68;4.30;;;;;;;;;;4940957;29;20107;-88
2021/01/21 04:19:33;;;;;;;9.35;5.72;;;;;;;;;;4941088;29;20047;-88
2021/01/21 04:21:59;;;;;;;7.68;5.05;;;;;;;;;;4941419;29;20048;-88
2021/01/21 04:24:25;;;;;;;6.75;3.88;;;;;;;;;;4940125;29;20058;-88
2021/01/21 04:26:51;;;;;;;7.38;4.32;;;;;;;;;;4941160;29;20067;-87
2021/01/21 04:29:17;;;;;;;9.00;4.38;;;;;;;;;;4940780;29;20052;-87
2021/01/21 04:31:44;;;;;;;9.13;4.80;;;;;;;;;;4941062;29;20385;-87
2021/01/21 04:34:10;;;;;;;7.57;4.28;;;;;;;;;;4941238;29;20051;-87
2021/01/21 04:36:36;;;;;;;10.00;5.57;;;;;;;;;;4941472;29;20385;-88
2021/01/21 04:39:03;;;;;;;10.85;6.18;;;;;;;;;;4941094;29;20059;-87
2021/01/21 04:41:29;;;;;;;9.68;5.25;;;;;;;;;;4940977;29;20496;-88
2021/01/21 04:43:55;;;;;;;11.35;6.53;;;;;;;;;;4941669;29;20080;-88
2021/01/21 04:46:21;;;;;;;11.05;5.85;;;;;;;;;;4940771;29;20048;-87
2021/01/21 04:48:49;;;;;;;9.68;5.95;;;;;;;;;;4940500;29;20114;-88
2021/01/21 04:51:15;;;;;;;10.38;6.50;;;;;;;;;;4940128;29;20048;-88
2021/01/21 04:53:49;;;;;;;10.70;6.32;;;;;;;;;;4939880;29;20052;-88
2021/01/21 04:56:23;;;;;;;10.60;6.05;;;;;;;;;;4940076;29;20551;-88
2021/01/21 04:58:50;;;;;;;11.60;6.15;;;;;;;;;;4940264;29;20095;-88
2021/01/21 05:01:19;;;;;;;12.45;6.47;;;;;;;;;;4940297;29;20408;-87
2021/01/21 05:03:46;;;;;;;10.45;6.88;;;;;;;;;;4945459;28;20051;-88
2021/01/21 05:06:13;;;;;;;17.58;11.57;;;;;;;;;;4939980;29;20051;-87
2021/01/21 05:08:39;;;;;;;14.75;7.57;;;;;;;;;;4942090;29;20055;-87
2021/01/21 05:11:05;;;;;;;15.88;7.90;;;;;;;;;;4945747;29;20051;-87
2021/01/21 05:13:32;;;;;;;11.10;5.53;;;;;;;;;;4933881;29;20489;-88
2021/01/21 05:15:58;;;;;;;11.73;6.85;;;;;;;;;;4934649;29;20100;-88
2021/01/21 05:18:28;;;;;;;11.18;6.00;;;;;;;;;;4937962;29;20070;-88
2021/01/21 05:20:54;;;;;;;7.45;4.70;;;;;;;;;;4940344;29;20403;-87
2021/01/21 05:23:23;;;;;;;7.88;4.53;;;;;;;;;;4940412;29;20481;-88
2021/01/21 05:25:49;;;;;;;7.80;4.95;;;;;;;;;;4936306;29;20102;-88
2021/01/21 05:28:15;;;;;;;10.75;6.38;;;;;;;;;;4939611;29;20056;-87
2021/01/21 05:30:41;;;;;;;7.95;4.65;;;;;;;;;;4942491;29;20048;-87
2021/01/21 05:33:07;;;;;;;7.30;4.97;;;;;;;;;;4946510;29;20052;-87
2021/01/21 05:35:36;;;;;;;5.97;3.70;;;;;;;;;;4944620;29;20047;-88
2021/01/21 05:38:02;;;;;;;7.57;4.05;;;;;;;;;;4936607;29;20064;-87
2021/01/21 05:40:29;;;;;;;5.82;3.92;;;;;;;;;;4921569;29;20052;-87
2021/01/21 05:42:57;;;;;;;8.07;4.45;;;;;;;;;;4939137;29;20047;-88
2021/01/21 05:45:24;;;;;;;8.18;4.75;;;;;;;;;;4939441;29;20047;-88
2021/01/21 05:47:54;;;;;;;7.50;4.38;;;;;;;;;;4939831;29;20126;-88
2021/01/21 05:50:20;;;;;;;7.80;4.70;;;;;;;;;;4934780;29;20058;-87
2021/01/21 05:52:47;;;;;;;6.90;4.20;;;;;;;;;;4939528;29;20047;-88
2021/01/21 05:55:13;;;;;;;7.45;3.88;;;;;;;;;;4953481;29;20051;-87
2021/01/21 05:57:40;;;;;;;6.55;4.22;;;;;;;;;;4939695;29;20119;-88
2021/01/21 06:00:07;;;;;;;5.85;3.35;;;;;;;;;;4941394;29;20423;-88
2021/01/21 06:02:33;;;;;;;7.05;4.05;;;;;;;;;;4958381;28;20055;-88
2021/01/21 06:05:00;;;;;;;8.15;4.50;;;;;;;;;;4949255;29;20131;-88
2021/01/21 06:07:28;;;;;;;8.07;5.18;;;;;;;;;;4939273;29;20051;-88
2021/01/21 06:09:54;;;;;;;8.75;5.50;;;;;;;;;;4929930;29;20111;-88
2021/01/21 06:12:21;;;;;;;12.23;6.93;;;;;;;;;;4934545;29;20135;-88
2021/01/21 06:14:48;;;;;;;8.90;6.47;;;;;;;;;;4939197;29;20047;-88
2021/01/21 06:17:14;;;;;;;7.03;4.65;;;;;;;;;;4938811;29;20055;-88
2021/01/21 06:19:40;;;;;;;6.60;4.38;;;;;;;;;;4938489;29;20515;-88
2021/01/21 06:22:09;;;;;;;6.82;3.75;;;;;;;;;;4939044;29;20051;-88
2021/01/21 06:24:42;;;;;;;6.10;3.25;;;;;;;;;;4939240;29;20203;-88
2021/01/21 06:27:10;;;;;;;5.95;3.25;;;;;;;;;;4931353;29;20052;-88
2021/01/21 06:29:36;;;;;;;7.32;3.08;;;;;;;;;;4919900;29;20052;-88
2021/01/21 06:32:04;;;;;;;10.38;6.13;;;;;;;;;;4919937;29;20123;-88
2021/01/21 06:34:32;;;;;;;13.07;7.00;;;;;;;;;;4920005;29;20527;-88
2021/01/21 06:37:00;;;;;;;12.23;6.03;;;;;;;;;;4919672;29;20083;-88
2021/01/21 06:39:43;;;;;;;9.32;5.82;;;;;;;;;;4919524;29;20072;-87
2021/01/21 06:42:11;;;;;;;8.85;4.68;;;;;;;;;;4921096;29;20063;-88
2021/01/21 06:44:37;;;;;;;6.68;3.75;;;;;;;;;;4937710;29;20044;-88
2021/01/21 06:47:04;;;;;;;5.97;2.95;;;;;;;;;;4938190;29;20051;-88
2021/01/21 06:49:30;;;;;;;5.53;3.10;;;;;;;;;;4938024;29;20142;-88
2021/01/21 06:51:56;;;;;;;11.80;6.13;;;;;;;;;;4938515;29;20056;-88
2021/01/21 06:54:23;;;;;;;8.75;5.78;;;;;;;;;;4937645;29;20051;-88
2021/01/21 06:56:49;;;;;;;8.95;5.22;;;;;;;;;;4938019;29;20063;-88
2021/01/21 06:59:15;;;;;;;8.63;5.43;;;;;;;;;;4937649;29;20055;-88
2021/01/21 07:01:49;;;;;;;10.05;5.15;;;;;;;;;;4937890;29;20055;-88
2021/01/21 07:04:21;;;;;;;10.30;6.07;;;;;;;;;;4937161;29;20044;-88
2021/01/21 07:07:06;;;;;;;20.33;15.38;;;;;;;;;;4938520;29;20142;-88
2021/01/21 07:09:33;;;;;;;11.60;8.00;;;;;;;;;;4939099;29;20063;-88
2021/01/21 07:12:01;;;;;;;11.10;5.00;;;;;;;;;;4940008;29;20062;-88
2021/01/21 07:14:29;;;;;;;6.13;3.70;;;;;;;;;;4939461;29;20051;-88
2021/01/21 07:16:57;;;;;;;6.68;3.80;;;;;;;;;;4937991;29;20081;-88
2021/01/21 07:19:38;;;;;;;5.38;3.08;;;;;;;;;;4940515;29;20054;-88
2021/01/21 07:22:28;;;;;;;5.60;3.65;;;;;;;;;;4939329;29;20044;-88
2021/01/21 07:24:56;;;;;;;6.60;3.42;;;;;;;;;;4918569;29;20111;-88
2021/01/21 07:27:23;;;;;;;4.70;3.22;;;;;;;;;;4939663;29;20090;-88
2021/01/21 07:29:49;;;;;;;6.55;3.70;;;;;;;;;;4935812;29;20047;-88
2021/01/21 07:32:27;;;;;;;5.47;3.53;;;;;;;;;;4926872;29;20051;-88
2021/01/21 07:34:54;;;;;;;11.82;7.00;;;;;;;;;;4935539;29;20061;-88
2021/01/21 07:37:26;;;;;;;14.55;9.52;;;;;;;;;;4947422;29;20065;-88
2021/01/21 07:40:04;;;;;;;12.52;6.97;;;;;;;;;;4938133;29;20039;-87
2021/01/21 07:42:52;;;;;;;12.20;6.40;;;;;;;;;;4946513;29;20047;-89
2021/01/21 07:48:56;;;;;;;7.18;3.60;;;;;;;;;;4936217;29;20051;-88
2021/01/21 07:51:25;;;;;;;7.25;3.97;;;;;;;;;;4948206;29;20088;-88
2021/01/21 07:54:03;;;;;;;6.75;4.22;;;;;;;;;;4946383;29;20054;-87
2021/01/21 07:56:29;;;;;;;8.27;5.40;;;;;;;;;;4940342;29;20071;-87
2021/01/21 07:59:00;;;;;;;8.98;4.50;;;;;;;;;;4942073;29;20056;-87
2021/01/21 08:01:26;;;;;;;9.65;4.72;;;;;;;;;;4945108;29;20055;-87
2021/01/21 08:03:52;;;;;;;8.23;4.68;;;;;;;;;;4940753;29;20052;-88
2021/01/21 08:06:19;;;;;;;10.55;5.70;;;;;;;;;;4941380;29;20134;-87
2021/01/21 08:08:47;;;;;;;8.80;5.03;;;;;;;;;;4942666;29;20129;-88
2021/01/21 08:11:14;;;;;;;9.32;5.53;;;;;;;;;;4942082;29;20060;-87
2021/01/21 08:13:40;;;;;;;15.27;9.13;;;;;;;;;;4941608;29;20095;-88
2021/01/21 08:16:07;;;;;;;49.08;25.65;;;;;;;;;;4933407;29;20047;-87
2021/01/21 08:18:36;;;;;;;43.08;23.10;;;;;;;;;;4941366;29;20040;-87
2021/01/21 08:21:20;;;;;;;42.63;23.02;;;;;;;;;;4925719;29;20457;-87
2021/01/21 08:23:54;;;;;;;37.30;19.92;;;;;;;;;;4936527;29;20488;-88
2021/01/21 08:26:20;;;;;;;37.53;20.63;;;;;;;;;;4928640;29;20070;-87
2021/01/21 08:28:46;;;;;;;21.58;14.13;;;;;;;;;;4929352;29;20155;-87
2021/01/21 08:31:12;;;;;;;12.82;9.00;;;;;;;;;;4936949;29;20048;-87
2021/01/21 08:33:39;;;;;;;7.93;4.63;;;;;;;;;;4941696;29;20048;-87
2021/01/21 08:36:06;;;;;;;7.43;4.47;;;;;;;;;;4928373;29;20086;-89
2021/01/21 08:38:36;;;;;;;6.15;3.13;;;;;;;;;;4928705;29;20465;-89
2021/01/21 08:41:04;;;;;;;8.20;4.15;;;;;;;;;;4934643;29;20051;-87
2021/01/21 08:43:40;;;;;;;5.47;3.05;;;;;;;;;;4940168;29;20527;-90
2021/01/21 08:46:16;;;;;;;9.20;4.47;;;;;;;;;;4933871;29;21305;-89
2021/01/21 08:48:42;;;;;;;9.57;4.47;;;;;;;;;;4921209;29;20120;-89
2021/01/21 08:51:24;;;;;;;9.65;5.38;;;;;;;;;;4934547;29;20054;-87
2021/01/21 08:53:50;;;;;;;9.40;5.25;;;;;;;;;;4928032;29;20091;-88
2021/01/21 08:56:30;;;;;;;9.63;6.40;;;;;;;;;;4938841;29;20051;-88
2021/01/21 08:58:58;;;;;;;9.30;5.97;;;;;;;;;;4937713;29;20047;-88
2021/01/21 09:01:24;;;;;;;12.80;7.82;;;;;;;;;;4939713;29;20076;-87
2021/01/21 09:03:51;;;;;;;7.57;4.35;;;;;;;;;;4939808;29;20070;-88
2021/01/21 09:06:19;;;;;;;11.25;6.43;;;;;;;;;;4934925;29;20094;-87
2021/01/21 09:08:50;;;;;;;10.65;7.05;;;;;;;;;;4931267;29;20048;-86
2021/01/21 09:11:33;;;;;;;10.50;6.63;;;;;;;;;;4927115;29;20052;-87
2021/01/21 09:14:00;;;;;;;9.90;5.95;;;;;;;;;;4935321;29;20055;-87
2021/01/21 09:16:54;;;;;;;6.40;3.70;;;;;;;;;;4924644;29;20508;-87
2021/01/21 09:22:38;;;;;;;3.05;1.58;;;;;;;;;;4972751;28;20471;-88
2021/01/21 09:25:05;;;;;;;2.67;1.30;;;;;;;;;;4961362;28;20050;-89
2021/01/21 09:27:34;;;;;;;2.63;1.70;;;;;;;;;;4979315;28;20051;-90
2021/01/21 09:30:01;;;;;;;3.90;1.73;;;;;;;;;;4977690;28;20047;-89
2021/01/21 09:32:29;;;;;;;2.65;1.63;;;;;;;;;;4978217;28;20055;-89
2021/01/21 09:34:58;;;;;;;4.50;2.03;;;;;;;;;;4977453;28;20113;-89
2021/01/21 09:37:24;;;;;;;4.18;1.85;;;;;;;;;;4977680;28;20046;-88
2021/01/21 09:39:51;;;;;;;4.05;2.03;;;;;;;;;;4943981;28;20383;-89
2021/01/21 09:42:17;;;;;;;7.03;2.70;;;;;;;;;;4942674;28;20043;-89
2021/01/21 09:44:45;;;;;;;5.97;3.00;;;;;;;;;;4942628;28;20074;-89
2021/01/21 09:47:11;;;;;;;5.65;2.97;;;;;;;;;;4944717;28;20046;-90
2021/01/21 09:49:37;;;;;;;6.93;2.63;;;;;;;;;;4977238;28;20046;-89
2021/01/21 09:52:06;;;;;;;4.53;2.13;;;;;;;;;;4951133;28;20079;-89
2021/01/21 09:54:32;;;;;;;5.60;2.58;;;;;;;;;;4976586;28;20172;-89
2021/01/21 09:56:59;;;;;;;5.15;2.17;;;;;;;;;;4977198;28;20101;-89
2021/01/21 09:59:25;;;;;;;4.45;2.42;;;;;;;;;;4959072;28;20381;-90
2021/01/21 10:01:52;;;;;;;7.07;2.90;;;;;;;;;;4978170;28;20457;-89
2021/01/21 10:04:18;;;;;;;5.22;3.25;;;;;;;;;;4960398;28;20407;-91
2021/01/21 10:06:45;;;;;;;7.53;3.22;;;;;;;;;;4977512;28;20145;-91
2021/01/21 10:09:11;;;;;;;7.00;3.95;;;;;;;;;;4960445;28;20082;-88
2021/01/21 10:11:39;;;;;;;7.15;5.20;;;;;;;;;;4958576;28;20395;-90
2021/01/21 10:14:05;;;;;;;8.00;5.20;;;;;;;;;;4977565;28;20565;-92
2021/01/21 10:16:33;;;;;;;7.28;4.80;;;;;;;;;;4979289;28;20073;-90
2021/01/21 10:19:01;;;;;;;7.68;4.40;;;;;;;;;;4979680;28;20050;-89
2021/01/21 10:21:28;;;;;;;6.88;4.10;;;;;;;;;;4960929;28;20059;-90
2021/01/21 10:23:54;;;;;;;5.45;3.15;;;;;;;;;;4977631;28;20471;-90
2021/01/21 10:26:21;;;;;;;5.38;2.65;;;;;;;;;;4976982;28;20043;-90
2021/01/21 10:28:47;;;;;;;5.05;2.10;;;;;;;;;;4976971;28;20043;-89
2021/01/21 10:31:13;;;;;;;3.45;1.98;;;;;;;;;;4975078;28;20039;-88
2021/01/21 10:33:41;;;;;;;4.90;2.38;;;;;;;;;;4940214;29;20049;-89
2021/01/21 10:36:09;;;;;;;3.47;1.88;;;;;;;;;;4932760;29;20039;-90
2021/01/21 10:38:37;;;;;;;4.43;1.88;;;;;;;;;;4963323;28;20408;-90
2021/01/21 10:41:03;;;;;;;3.20;1.60;;;;;;;;;;4950469;28;20396;-90
2021/01/21 10:43:29;;;;;;;2.50;1.40;;;;;;;;;;4946313;28;20062;-90
2021/01/21 10:45:55;;;;;;;2.05;1.17;;;;;;;;;;4940470;29;20047;-90
2021/01/21 10:48:22;;;;;;;4.60;2.22;;;;;;;;;;4938654;29;20047;-89
2021/01/21 10:50:48;;;;;;;3.40;1.77;;;;;;;;;;4956865;28;20114;-91
2021/01/21 10:53:15;;;;;;;3.75;1.83;;;;;;;;;;4939742;29;20051;-91
2021/01/21 10:55:41;;;;;;;3.67;1.45;;;;;;;;;;4972757;28;20542;-90
2021/01/21 10:58:07;;;;;;;3.05;1.48;;;;;;;;;;4946379;28;20047;-87
2021/01/21 11:00:37;;;;;;;5.28;1.45;;;;;;;;;;4964322;28;20052;-88
2021/01/21 11:03:05;;;;;;;5.57;1.92;;;;;;;;;;4951672;29;20051;-88
2021/01/21 11:05:31;;;;;;;7.55;1.85;;;;;;;;;;4964409;28;20042;-87
2021/01/21 11:07:57;;;;;;;4.88;1.38;;;;;;;;;;4962847;28;20093;-87
2021/01/21 11:10:25;;;;;;;7.00;2.00;;;;;;;;;;4962345;28;20109;-88
2021/01/21 11:12:51;;;;;;;7.18;1.70;;;;;;;;;;4980024;28;20372;-88
2021/01/21 11:15:17;;;;;;;4.93;1.65;;;;;;;;;;4961944;28;20042;-88
2021/01/21 11:17:45;;;;;;;4.13;1.40;;;;;;;;;;4982208;28;20069;-87
2021/01/21 11:20:12;;;;;;;3.42;1.65;;;;;;;;;;4981239;28;20352;-87
2021/01/21 11:22:39;;;;;;;3.03;1.58;;;;;;;;;;4946574;28;20053;-88
2021/01/21 11:25:07;;;;;;;2.45;1.10;;;;;;;;;;4961714;28;20051;-89
2021/01/21 11:27:35;;;;;;;2.42;1.10;;;;;;;;;;4960307;28;20038;-88
2021/01/21 11:30:02;;;;;;;4.00;1.65;;;;;;;;;;4977700;28;20143;-88
2021/01/21 11:32:28;;;;;;;3.40;1.77;;;;;;;;;;4976498;28;20055;-88
2021/01/21 11:34:54;;;;;;;4.72;1.92;;;;;;;;;;4943947;29;20043;-88
2021/01/21 11:37:20;;;;;;;4.30;1.85;;;;;;;;;;4968219;28;20050;-88
2021/01/21 11:39:46;;;;;;;2.72;1.20;;;;;;;;;;4949350;29;20043;-88
2021/01/21 11:42:13;;;;;;;4.60;1.48;;;;;;;;;;4938747;28;20380;-88
2021/01/21 11:44:40;;;;;;;2.35;1.38;;;;;;;;;;4943952;28;20039;-88
2021/01/21 11:47:06;;;;;;;3.95;1.40;;;;;;;;;;4970386;28;20547;-88
2021/01/21 11:49:33;;;;;;;3.42;1.60;;;;;;;;;;4964911;28;20051;-88
2021/01/21 11:51:59;;;;;;;3.50;1.60;;;;;;;;;;4963807;28;20042;-91
2021/01/21 11:54:26;;;;;;;3.38;1.40;;;;;;;;;;4942293;29;20058;-91
2021/01/21 11:56:53;;;;;;;4.07;1.70;;;;;;;;;;4958763;29;20491;-91
2021/01/21 11:59:20;;;;;;;3.58;1.60;;;;;;;;;;4940157;29;20083;-89
2021/01/21 12:01:47;;;;;;;4.22;1.60;;;;;;;;;;4944608;28;20046;-91
2021/01/21 12:04:14;;;;;;;3.22;1.42;;;;;;;;;;4930680;28;20046;-90
2021/01/21 12:06:40;;;;;;;2.22;1.10;;;;;;;;;;4952316;28;20046;-90
2021/01/21 12:09:06;;;;;;;2.78;1.52;;;;;;;;;;4918526;28;20043;-90
2021/01/21 12:11:33;;;;;;;3.55;1.52;;;;;;;;;;4946741;28;20043;-90
2021/01/21 12:13:59;;;;;;;3.15;1.33;;;;;;;;;;4954139;29;20499;-90
2021/01/21 12:16:25;;;;;;;2.70;1.50;;;;;;;;;;4955140;28;20118;-90
2021/01/21 12:18:52;;;;;;;2.15;1.33;;;;;;;;;;4958111;28;20050;-87
2021/01/21 12:21:18;;;;;;;1.70;0.80;;;;;;;;;;4960108;29;20050;-89
2021/01/21 12:23:45;;;;;;;3.05;1.33;;;;;;;;;;4960321;29;20087;-89
2021/01/21 12:26:11;;;;;;;2.63;1.48;;;;;;;;;;4963309;29;20051;-89
2021/01/21 12:28:37;;;;;;;2.40;1.35;;;;;;;;;;4960556;29;20074;-89
2021/01/21 12:31:05;;;;;;;2.55;1.13;;;;;;;;;;4960277;29;20043;-90
2021/01/21 12:33:31;;;;;;;3.80;1.85;;;;;;;;;;4960625;29;20051;-90
2021/01/21 12:35:59;;;;;;;3.92;1.70;;;;;;;;;;4960506;29;20480;-89
2021/01/21 12:38:25;;;;;;;2.88;1.10;;;;;;;;;;4961142;29;20039;-90
2021/01/21 12:40:52;;;;;;;3.40;1.85;;;;;;;;;;4959506;29;20468;-90
2021/01/21 12:43:18;;;;;;;3.00;1.40;;;;;;;;;;4959966;29;20047;-90
2021/01/21 12:45:45;;;;;;;3.42;1.65;;;;;;;;;;4963762;28;20039;-89
2021/01/21 12:48:11;;;;;;;2.72;1.50;;;;;;;;;;4959439;28;20071;-90
2021/01/21 12:50:37;;;;;;;3.85;1.38;;;;;;;;;;4959225;29;20075;-87
2021/01/21 12:53:05;;;;;;;2.88;1.02;;;;;;;;;;4960394;29;20051;-84
2021/01/21 12:55:31;;;;;;;1.83;0.90;;;;;;;;;;4959142;28;20070;-86
2021/01/21 12:57:57;;;;;;;2.05;0.93;;;;;;;;;;4977545;28;20487;-86
2021/01/21 13:00:24;;;;;;;2.40;1.27;;;;;;;;;;4964367;28;20050;-86
2021/01/21 13:02:50;;;;;;;2.75;1.15;;;;;;;;;;4956116;29;20047;-86
2021/01/21 13:05:17;;;;;;;4.70;1.23;;;;;;;;;;4958174;28;20094;-87
2021/01/21 13:07:43;;;;;;;3.22;1.48;;;;;;;;;;4926414;29;20094;-87
2021/01/21 13:10:13;;;;;;;2.88;1.30;;;;;;;;;;4958468;28;20053;-86
2021/01/21 13:12:39;;;;;;;2.63;1.42;;;;;;;;;;4949694;29;20050;-85
2021/01/21 13:15:06;;;;;;;2.10;1.20;;;;;;;;;;4958042;29;20043;-86
2021/01/21 13:17:32;;;;;;;1.98;1.25;;;;;;;;;;4941636;29;20050;-86
2021/01/21 13:19:59;;;;;;;2.58;1.10;;;;;;;;;;4941082;29;20138;-87
2021/01/21 13:22:25;;;;;;;3.70;1.30;;;;;;;;;;4925902;29;20086;-84
2021/01/21 13:24:51;;;;;;;2.95;1.52;;;;;;;;;;4946337;29;20400;-84
2021/01/21 13:27:18;;;;;;;3.20;1.40;;;;;;;;;;4977281;28;20042;-86
2021/01/21 13:29:44;;;;;;;2.30;1.30;;;;;;;;;;4968108;28;20043;-86
2021/01/21 13:32:10;;;;;;;4.35;1.30;;;;;;;;;;4964178;28;20082;-85
2021/01/21 13:34:36;;;;;;;2.25;1.20;;;;;;;;;;4974721;28;20065;-85
2021/01/21 13:37:03;;;;;;;2.40;1.25;;;;;;;;;;4943307;29;20043;-85
2021/01/21 13:39:28;;;;;;;3.78;2.00;;;;;;;;;;4943218;29;20050;-85
2021/01/21 13:41:54;;;;;;;4.82;2.45;;;;;;;;;;4945508;29;20074;-84
2021/01/21 13:44:22;;;;;;;4.13;2.38;;;;;;;;;;4941682;29;20472;-84
2021/01/21 13:46:48;;;;;;;3.78;2.05;;;;;;;;;;4960645;28;20392;-84
2021/01/21 13:49:14;;;;;;;3.90;2.25;;;;;;;;;;4961319;29;20107;-84
2021/01/21 13:51:40;;;;;;;2.97;1.77;;;;;;;;;;4949582;29;20039;-83
2021/01/21 13:54:07;;;;;;;4.70;1.60;;;;;;;;;;4967299;29;20051;-85
2021/01/21 13:56:34;;;;;;;2.30;1.40;;;;;;;;;;4941769;28;20126;-85
2021/01/21 13:59:00;;;;;;;3.30;1.65;;;;;;;;;;4963321;28;20054;-84
2021/01/21 14:01:27;;;;;;;3.28;1.48;;;;;;;;;;4982190;28;20046;-84
2021/01/21 14:03:53;;;;;;;3.33;1.55;;;;;;;;;;4965244;28;20046;-86
2021/01/21 14:06:20;;;;;;;5.43;2.17;;;;;;;;;;4959871;28;20043;-86
2021/01/21 14:08:46;;;;;;;4.10;1.50;;;;;;;;;;4943153;28;20082;-87
2021/01/21 14:11:12;;;;;;;3.40;1.75;;;;;;;;;;4975627;28;20054;-87
2021/01/21 14:13:38;;;;;;;3.92;1.58;;;;;;;;;;4958487;28;20059;-86
2021/01/21 14:16:04;;;;;;;5.72;1.40;;;;;;;;;;4957964;28;20106;-89
2021/01/21 14:18:31;;;;;;;4.43;1.35;;;;;;;;;;4976856;28;20439;-88
2021/01/21 14:20:57;;;;;;;5.00;1.80;;;;;;;;;;4959431;28;20055;-88
2021/01/21 14:23:23;;;;;;;3.78;1.80;;;;;;;;;;4977891;28;20134;-88
2021/01/21 14:25:49;;;;;;;3.63;1.83;;;;;;;;;;4977072;28;20484;-88
2021/01/21 14:28:15;;;;;;;4.35;1.80;;;;;;;;;;4959927;28;20042;-88
2021/01/21 14:30:41;;;;;;;2.72;1.70;;;;;;;;;;4975716;28;20049;-86
2021/01/21 14:33:07;;;;;;;3.00;1.63;;;;;;;;;;4975736;28;20101;-87
2021/01/21 14:35:34;;;;;;;4.05;1.88;;;;;;;;;;4976107;28;20046;-87
2021/01/21 14:38:01;;;;;;;4.55;2.03;;;;;;;;;;4976806;28;20047;-86
2021/01/21 14:40:27;;;;;;;4.38;1.83;;;;;;;;;;4975747;28;20051;-90
2021/01/21 14:42:53;;;;;;;4.15;2.28;;;;;;;;;;4958576;28;20085;-87
2021/01/21 14:45:19;;;;;;;7.28;3.67;;;;;;;;;;4958209;28;20050;-87
2021/01/21 14:47:45;;;;;;;6.93;2.92;;;;;;;;;;4960452;28;20057;-86
2021/01/21 14:50:12;;;;;;;7.93;3.38;;;;;;;;;;4977789;28;20047;-86